createdAt,value
2022-12-23T15:53:38.445Z,13.00
2022-12-23T15:56:09.201Z,13.20
2022-12-23T15:58:39.855Z,13.10
2022-12-23T16:01:08.583Z,13.10
2022-12-23T16:03:39.937Z,13.20
2022-12-23T16:06:11.015Z,13.20
2022-12-23T16:08:40.635Z,13.20
2022-12-23T16:11:15.772Z,13.20
2022-12-23T16:13:58.410Z,13.20
2022-12-23T16:16:39.735Z,13.40
2022-12-23T16:19:27.856Z,13.20
2022-12-23T16:21:56.946Z,13.30
2022-12-23T16:24:24.888Z,13.30
2022-12-23T16:26:55.604Z,13.30
2022-12-23T16:29:23.699Z,13.20
2022-12-23T16:31:57.580Z,13.20
2022-12-23T16:34:31.970Z,13.30
2022-12-23T16:37:01.081Z,13.20
2022-12-23T16:39:29.415Z,13.30
2022-12-23T16:41:57.320Z,13.30
2022-12-23T16:44:25.144Z,13.10
2022-12-23T16:46:53.098Z,13.30
2022-12-23T16:49:29.588Z,13.30
2022-12-23T16:52:03.019Z,13.30
2022-12-23T16:54:30.759Z,13.70
2022-12-23T16:56:59.035Z,13.40
2022-12-23T16:59:26.896Z,13.30
2022-12-23T17:02:01.258Z,13.30
2022-12-23T17:04:31.095Z,13.20
2022-12-23T17:06:58.870Z,13.20
2022-12-23T17:09:28.107Z,13.20
2022-12-23T17:11:56.196Z,13.30
2022-12-23T17:14:25.734Z,13.40
2022-12-23T17:16:53.775Z,13.30
2022-12-23T17:19:27.961Z,13.40
2022-12-23T17:22:02.314Z,13.40
2022-12-23T17:24:31.703Z,13.10
2022-12-23T17:26:59.867Z,13.20
2022-12-23T17:29:28.193Z,13.40
2022-12-23T17:31:56.218Z,13.40
2022-12-23T17:34:25.260Z,13.30
2022-12-23T17:36:53.297Z,13.30
2022-12-23T17:39:21.866Z,13.30
2022-12-23T17:41:51.830Z,13.30
2022-12-23T17:44:20.513Z,13.50
2022-12-23T17:46:48.840Z,13.30
2022-12-23T17:49:16.913Z,13.40
2022-12-23T17:51:45.327Z,13.40
2022-12-23T17:54:23.026Z,13.50
2022-12-23T17:56:53.467Z,13.30
2022-12-23T17:59:21.863Z,13.30
2022-12-23T18:01:50.391Z,13.30
2022-12-23T18:04:18.445Z,13.30
2022-12-23T18:06:46.358Z,13.30
2022-12-23T18:09:14.320Z,13.30
2022-12-23T18:11:45.749Z,13.30
2022-12-23T18:14:18.155Z,13.40
2022-12-23T18:16:46.319Z,13.60
2022-12-23T18:19:18.136Z,13.50
2022-12-23T18:21:46.201Z,14.00
2022-12-23T18:24:14.725Z,13.70
2022-12-23T18:26:43.001Z,14.20
2022-12-23T18:29:10.862Z,13.90
2022-12-23T18:31:50.186Z,14.10
2022-12-23T18:34:19.612Z,14.00
2022-12-23T18:36:48.181Z,14.30
2022-12-23T18:39:16.895Z,14.20
2022-12-23T18:41:44.818Z,14.10
2022-12-23T18:44:17.851Z,14.10
2022-12-23T18:46:47.254Z,14.10
2022-12-23T18:49:15.701Z,13.90
2022-12-23T18:51:43.582Z,14.00
2022-12-23T18:54:14.588Z,14.10
2022-12-23T18:56:42.657Z,14.00
2022-12-23T18:59:16.809Z,14.30
2022-12-23T19:01:46.288Z,13.70
2022-12-23T19:04:14.778Z,14.10
2022-12-23T19:06:42.849Z,14.50
2022-12-23T19:09:17.079Z,14.00
2022-12-23T19:11:46.963Z,14.20
2022-12-23T19:14:15.189Z,14.20
2022-12-23T19:16:49.243Z,14.30
2022-12-23T19:19:20.910Z,14.30
2022-12-23T19:21:48.914Z,14.30
2022-12-23T19:24:17.040Z,14.00
2022-12-23T19:26:44.988Z,13.60
2022-12-23T19:29:12.961Z,13.80
2022-12-23T19:31:40.915Z,14.10
2022-12-23T19:34:14.673Z,14.20
2022-12-23T19:36:45.223Z,14.10
2022-12-23T19:39:16.171Z,13.80
2022-12-23T19:41:45.468Z,13.80
2022-12-23T19:44:15.577Z,13.70
2022-12-23T19:46:44.007Z,13.90
2022-12-23T19:49:19.129Z,13.50
2022-12-23T19:51:55.054Z,13.80
2022-12-23T19:54:23.107Z,14.00
2022-12-23T19:56:51.830Z,13.90
2022-12-23T19:59:21.228Z,13.90
2022-12-23T20:01:49.291Z,13.70
2022-12-23T20:04:17.514Z,13.70
2022-12-23T20:06:45.389Z,13.40
2022-12-23T20:09:15.017Z,13.10
2022-12-23T20:11:45.290Z,13.30
2022-12-23T20:14:14.573Z,13.50
2022-12-23T20:16:42.623Z,13.30
2022-12-23T20:19:10.719Z,13.20
2022-12-23T20:21:38.763Z,13.30
2022-12-23T20:24:07.344Z,13.40
2022-12-23T20:26:37.084Z,13.50
2022-12-23T20:29:05.570Z,13.70
2022-12-23T20:31:37.339Z,13.40
2022-12-23T20:34:06.232Z,13.50
2022-12-23T20:36:36.539Z,13.70
2022-12-23T20:39:05.128Z,13.50
2022-12-23T20:41:34.116Z,13.60
2022-12-23T20:44:33.392Z,13.60
2022-12-23T20:46:51.518Z,13.70
2022-12-23T20:49:19.724Z,13.80
2022-12-23T20:51:47.629Z,13.70
2022-12-23T20:54:15.626Z,13.80
2022-12-23T20:56:43.718Z,13.60
2022-12-23T20:59:13.209Z,13.60
2022-12-23T21:01:42.024Z,13.60
2022-12-23T21:04:12.804Z,13.40
